This demonstration page uses our WeatherBlox Daily Observations layout. Learn more.

41.55636, -103.73856

Hourly Observations for December 27, 2019

Temp ( °F °C ) Dew Point ( °F °C ) Humidity (%) Winds ( mph kmh ) Pressure ( in mb ) Visibility ( mi km ) Precip ( " mm )
12:58 am 00:58 Clear 28 -2.5 24 -4.4 87 87 S 6 9 30.2 1023 10 16.0934 0 0
1:58 am 01:58 Mostly Cloudy 24 -4.6 22 -5.7 92 92 Calm 30.22 1023 10 16.0934 0 0
2:58 am 02:58 Cloudy 30 -1.3 26 -3.1 88 88 Calm 30.2 1023 10 16.0934 0 0
3:58 am 03:58 Mostly Cloudy 30 -0.9 26 -3.1 85 85 SSW 8 13 30.2 1023 10 16.0934 0 0
4:58 am 04:58 Mostly Cloudy 28 -2.3 25 -4.1 88 88 SSW 6 9 30.2 1023 10 16.0934 0 0
5:58 am 05:58 Clear 26 -3.3 23 -5.1 88 88 SW 6 9 30.19 1022 10 16.0934 0 0
6:58 am 06:58 Clear 26 -3.2 24 -4.6 90 90 SW 5 7 30.18 1022 10 16.0934 0 0
7:58 am 07:58 Clear 27 -3 24 -4.5 90 90 W 3 6 30.16 1021 10 16.0934 0 0
8:58 am 08:58 Mostly Clear 28 -2.1 26 -3.5 90 90 W 5 7 30.14 1021 10 16.0934 0 0
9:58 am 09:58 Clear 30 -1.3 26 -3.2 87 87 W 5 7 30.13 1020 10 16.0934 0 0
10:58 am 10:58 Clear 29 -1.6 26 -3.3 88 88 Calm 30.14 1021 10 16.0934 0 0
11:58 am 11:58 Clear 27 -2.6 25 -3.8 92 92 Calm 30.16 1021 10 16.0934 0 0
12:58 pm 12:58 Mostly Cloudy 27 -2.8 25 -3.9 92 92 SW 12 19 30.16 1021 10 16.0934 0 0
1:58 pm 13:58 Cloudy 27 -2.7 26 -3.3 96 96 Calm 30.16 1021 7 11.26538 0 0
2:58 pm 14:58 Cloudy 28 -2 27 -2.7 95 95 SW 8 13 30.13 1020 7 11.26538 0 0
3:58 pm 15:58 Cloudy 28 -2 27 -2.6 96 96 SW 9 15 30.1 1019 8 12.87472 0 0
4:58 pm 16:58 Cloudy 30 -1.3 28 -2.3 93 93 SW 8 13 30.11 1020 10 16.0934 0 0
5:58 pm 17:58 Cloudy 31 -0.6 28 -2.1 90 90 S 14 22 30.08 1019 10 16.0934 0 0
6:58 pm 18:58 Cloudy 32 -0.2 28 -2.2 87 87 SSW 8 13 30.04 1017 10 16.0934 0 0
7:58 pm 19:58 Cloudy 32 -0.2 28 -2.5 85 85 WSW 6 9 29.98 1015 10 16.0934 0 0
8:58 pm 20:58 Cloudy 33 0.4 28 -2.4 82 82 SSW 5 7 29.96 1015 10 16.0934 0 0
9:58 pm 21:58 Cloudy 34 1 27 -2.6 77 77 SSE 9 15 29.92 1013 10 16.0934 0 0
10:58 pm 22:58 Cloudy 34 1 28 -2.2 79 79 SE 3 6 29.92 1013 10 16.0934 0 0
11:58 pm 23:58 Cloudy 33 0.6 28 -2.2 82 82 SE 6 9 29.91 1013 10 16.0934 0 0

Powered by AerisWeather